createdAt,value
2023-03-21T00:00:23.651Z,4.10
2023-03-21T00:02:50.150Z,3.78
2023-03-21T00:05:16.702Z,4.25
2023-03-21T00:07:43.350Z,4.00
2023-03-21T00:10:16.711Z,4.15
2023-03-21T00:12:46.357Z,4.18
2023-03-21T00:15:13.043Z,3.85
2023-03-21T00:17:40.014Z,3.70
2023-03-21T00:20:15.285Z,3.50
2023-03-21T00:22:42.345Z,3.83
2023-03-21T00:25:10.513Z,3.90
2023-03-21T00:28:05.331Z,3.95
2023-03-21T00:30:24.594Z,4.65
2023-03-21T00:32:56.525Z,4.00
2023-03-21T00:35:58.040Z,4.10
2023-03-21T00:38:16.504Z,4.13
2023-03-21T00:40:48.818Z,4.28
2023-03-21T00:43:17.503Z,4.28
2023-03-21T00:45:44.598Z,4.47
2023-03-21T00:48:11.267Z,4.43
2023-03-21T00:50:38.874Z,4.20
2023-03-21T00:53:06.139Z,4.38
2023-03-21T00:55:32.869Z,3.90
2023-03-21T00:58:02.098Z,4.38
2023-03-21T01:00:29.785Z,4.30
2023-03-21T01:03:17.398Z,4.60
2023-03-21T01:06:03.606Z,4.05
2023-03-21T01:08:41.264Z,4.43
2023-03-21T01:11:17.159Z,4.38
2023-03-21T01:13:53.806Z,4.28
2023-03-21T01:16:25.049Z,3.88
2023-03-21T01:18:52.254Z,4.10
2023-03-21T01:21:18.920Z,4.18
2023-03-21T01:23:46.250Z,3.88
2023-03-21T01:26:13.261Z,4.20
2023-03-21T01:28:40.762Z,3.70
2023-03-21T01:31:07.260Z,3.80
2023-03-21T01:33:34.644Z,3.78
2023-03-21T01:36:12.134Z,4.28
2023-03-21T01:38:40.542Z,4.50
2023-03-21T01:41:18.648Z,4.38
2023-03-21T01:43:46.028Z,4.72
2023-03-21T01:46:27.354Z,4.93
2023-03-21T01:49:12.396Z,4.60
2023-03-21T01:51:42.369Z,4.55
2023-03-21T01:54:11.412Z,4.88
2023-03-21T01:56:39.118Z,4.90
2023-03-21T01:59:19.376Z,4.53
2023-03-21T02:02:20.673Z,4.00
2023-03-21T02:05:05.932Z,4.13
2023-03-21T02:07:35.791Z,5.88
2023-03-21T02:10:10.113Z,8.57
2023-03-21T02:12:39.904Z,9.77
2023-03-21T02:15:09.358Z,9.50
2023-03-21T02:18:03.209Z,11.82
2023-03-21T02:20:40.759Z,11.10
2023-03-21T02:23:18.464Z,9.93
2023-03-21T02:25:44.988Z,8.07
2023-03-21T02:28:16.731Z,7.60
2023-03-21T02:30:56.022Z,7.53
2023-03-21T02:33:36.409Z,6.38
2023-03-21T02:36:15.438Z,6.20
2023-03-21T02:38:49.134Z,5.60
2023-03-21T02:41:19.943Z,5.45
2023-03-21T02:43:54.041Z,5.35
2023-03-21T02:49:10.139Z,4.45
2023-03-21T02:51:38.510Z,4.20
2023-03-21T02:54:28.292Z,4.63
2023-03-21T02:56:58.166Z,4.15
2023-03-21T02:59:26.600Z,4.10
2023-03-21T03:01:56.260Z,4.30
2023-03-21T03:04:26.624Z,3.97
2023-03-21T03:06:53.711Z,4.43
2023-03-21T03:09:39.369Z,4.78
2023-03-21T03:12:16.670Z,4.97
2023-03-21T03:15:12.859Z,4.57
2023-03-21T03:17:41.041Z,4.25
2023-03-21T03:20:16.130Z,3.92
2023-03-21T03:22:48.246Z,3.97
2023-03-21T03:25:29.579Z,3.70
2023-03-21T03:28:04.437Z,4.00
2023-03-21T03:30:41.176Z,3.60
2023-03-21T03:33:10.481Z,3.80
2023-03-21T03:35:37.254Z,3.90
2023-03-21T03:38:06.197Z,4.55
2023-03-21T03:40:45.768Z,4.10
2023-03-21T03:43:28.483Z,4.07
2023-03-21T03:45:58.451Z,3.83
2023-03-21T03:48:27.047Z,3.67
2023-03-21T03:51:02.697Z,3.58
2023-03-21T03:53:52.982Z,3.17
2023-03-21T03:56:20.996Z,3.15
2023-03-21T03:58:48.044Z,3.10
2023-03-21T04:01:18.701Z,2.83
2023-03-21T04:03:50.557Z,2.92
2023-03-21T04:06:19.248Z,3.23
2023-03-21T04:08:46.944Z,3.30
2023-03-21T04:11:15.018Z,3.17
2023-03-21T04:13:46.730Z,3.00
2023-03-21T04:18:48.050Z,2.97
2023-03-21T04:21:17.466Z,3.20
2023-03-21T04:23:45.492Z,3.85
2023-03-21T04:26:12.024Z,3.38
2023-03-21T04:28:44.558Z,3.30
2023-03-21T04:31:33.839Z,3.33
2023-03-21T04:34:10.171Z,3.28
2023-03-21T04:36:39.503Z,3.00
2023-03-21T04:39:12.582Z,3.05
2023-03-21T04:41:40.547Z,2.83
2023-03-21T04:44:07.205Z,3.10
2023-03-21T04:46:34.263Z,3.00
2023-03-21T04:49:01.304Z,3.95
2023-03-21T04:51:27.982Z,3.28
2023-03-21T04:53:57.488Z,3.55
2023-03-21T04:56:32.560Z,3.30
2023-03-21T04:58:59.528Z,3.40
2023-03-21T05:01:30.498Z,3.30
2023-03-21T05:04:01.876Z,3.10
2023-03-21T05:06:31.990Z,3.75
2023-03-21T05:09:01.734Z,3.63
2023-03-21T05:11:32.308Z,3.58
2023-03-21T05:13:59.720Z,3.05
2023-03-21T05:16:30.531Z,3.17
2023-03-21T05:18:59.384Z,3.70
2023-03-21T05:21:29.800Z,3.78
2023-03-21T05:23:58.349Z,3.58
2023-03-21T05:26:25.622Z,4.07
2023-03-21T05:28:59.169Z,3.55
2023-03-21T05:31:26.030Z,4.45
2023-03-21T05:34:03.435Z,3.83
2023-03-21T05:36:30.260Z,3.72
2023-03-21T05:38:56.868Z,4.00
2023-03-21T05:41:23.724Z,3.90
2023-03-21T05:43:50.650Z,3.85
2023-03-21T05:46:17.487Z,3.92
2023-03-21T05:48:44.826Z,3.75
2023-03-21T05:51:14.549Z,3.70
2023-03-21T05:53:41.203Z,3.25
2023-03-21T05:56:08.627Z,3.65
2023-03-21T05:58:47.299Z,3.90
2023-03-21T06:01:14.635Z,3.80
2023-03-21T06:03:46.679Z,3.70
2023-03-21T06:06:17.859Z,3.38
2023-03-21T06:08:53.219Z,3.22
2023-03-21T06:11:23.337Z,3.60
2023-03-21T06:13:53.078Z,3.00
2023-03-21T06:16:22.215Z,3.60
2023-03-21T06:18:48.998Z,3.70
2023-03-21T06:21:30.849Z,3.35
2023-03-21T06:23:57.440Z,3.97
2023-03-21T06:26:24.038Z,3.13
2023-03-21T06:28:53.395Z,3.28
2023-03-21T06:31:22.711Z,3.47
2023-03-21T06:33:51.823Z,4.10
2023-03-21T06:36:18.939Z,3.85
2023-03-21T06:38:48.673Z,4.47
2023-03-21T06:41:17.086Z,4.65
2023-03-21T06:43:53.414Z,4.38
2023-03-21T06:46:20.525Z,4.50
2023-03-21T06:48:47.458Z,4.80
2023-03-21T06:51:15.493Z,4.55
2023-03-21T06:53:54.109Z,5.22
2023-03-21T06:56:29.094Z,5.25
2023-03-21T06:58:56.357Z,5.05
2023-03-21T07:01:43.607Z,5.20
2023-03-21T07:04:10.416Z,5.20
2023-03-21T07:06:38.366Z,4.82
2023-03-21T07:09:05.776Z,4.93
2023-03-21T07:11:33.825Z,5.15
2023-03-21T07:14:01.535Z,4.97
2023-03-21T07:16:28.332Z,5.03
2023-03-21T07:18:56.028Z,5.07
2023-03-21T07:21:22.830Z,5.13
2023-03-21T07:23:50.486Z,5.18
2023-03-21T07:26:20.126Z,4.70
2023-03-21T07:28:48.182Z,5.40
2023-03-21T07:31:16.524Z,5.72
2023-03-21T07:33:43.247Z,5.25
2023-03-21T07:36:13.144Z,5.10
2023-03-21T07:38:40.993Z,5.57
2023-03-21T07:41:07.808Z,5.20
2023-03-21T07:43:35.924Z,5.03
2023-03-21T07:46:08.457Z,5.20
2023-03-21T07:48:35.177Z,5.00
2023-03-21T07:51:03.239Z,4.80
2023-03-21T07:53:29.632Z,4.88
2023-03-21T07:55:57.334Z,5.32
2023-03-21T07:58:24.880Z,4.75
2023-03-21T08:00:52.014Z,5.03
2023-03-21T08:03:18.901Z,5.07
2023-03-21T08:05:45.769Z,5.05
2023-03-21T08:08:12.447Z,4.57
2023-03-21T08:10:38.860Z,4.53
2023-03-21T08:13:06.770Z,5.18
2023-03-21T08:15:33.309Z,4.85
2023-03-21T08:18:00.582Z,5.07
2023-03-21T08:20:27.567Z,4.93
2023-03-21T08:22:54.908Z,5.18
2023-03-21T08:25:22.044Z,5.38
2023-03-21T08:27:49.568Z,4.65
2023-03-21T08:30:17.916Z,5.35
2023-03-21T08:32:44.793Z,5.72
2023-03-21T08:35:15.291Z,4.68
2023-03-21T08:37:42.293Z,5.05
2023-03-21T08:40:13.523Z,5.22
2023-03-21T08:42:41.431Z,5.28
2023-03-21T08:45:09.097Z,5.85
2023-03-21T08:47:35.681Z,5.43
2023-03-21T08:50:06.579Z,5.28
2023-03-21T08:52:33.797Z,5.57
2023-03-21T08:55:02.164Z,5.70
2023-03-21T08:57:29.276Z,5.20
2023-03-21T08:59:56.107Z,4.78
2023-03-21T09:02:22.758Z,4.82
2023-03-21T09:04:49.359Z,4.80
2023-03-21T09:07:18.184Z,4.60
2023-03-21T09:09:47.756Z,4.95
2023-03-21T09:12:17.337Z,5.10
2023-03-21T09:14:43.801Z,5.20
2023-03-21T09:17:10.573Z,4.47
2023-03-21T09:19:38.948Z,4.90
2023-03-21T09:22:05.665Z,4.55
2023-03-21T09:24:32.088Z,4.75
2023-03-21T09:26:58.601Z,4.75
2023-03-21T09:29:24.958Z,4.47
2023-03-21T09:31:53.535Z,4.90
2023-03-21T09:34:20.303Z,4.60
2023-03-21T09:36:56.509Z,4.55
2023-03-21T09:39:24.153Z,3.97
2023-03-21T09:41:50.937Z,3.80
2023-03-21T09:44:24.853Z,4.47
2023-03-21T09:46:58.510Z,4.25
2023-03-21T09:49:31.010Z,4.82
2023-03-21T09:52:03.733Z,4.18
2023-03-21T09:54:33.668Z,3.97
2023-03-21T09:57:04.049Z,3.58
2023-03-21T09:59:40.375Z,3.90
2023-03-21T10:02:36.148Z,3.60
2023-03-21T10:05:09.502Z,3.40
2023-03-21T10:07:40.584Z,3.90
2023-03-21T10:10:15.149Z,3.65
2023-03-21T10:12:42.721Z,3.70
2023-03-21T10:15:14.705Z,3.90
2023-03-21T10:17:45.456Z,4.18
2023-03-21T10:20:17.210Z,5.22
2023-03-21T10:22:47.887Z,4.38
2023-03-21T10:25:19.361Z,4.30
2023-03-21T10:27:47.720Z,5.13
2023-03-21T10:30:22.793Z,4.57
2023-03-21T10:32:49.355Z,5.50
2023-03-21T10:35:16.055Z,4.80
2023-03-21T10:37:43.895Z,5.75
2023-03-21T10:40:16.000Z,5.47
2023-03-21T10:42:44.814Z,5.00
2023-03-21T10:45:16.918Z,6.05
2023-03-21T10:47:44.388Z,6.18
2023-03-21T10:50:16.360Z,6.07
2023-03-21T10:52:55.784Z,6.25
2023-03-21T10:55:26.970Z,6.85
2023-03-21T10:57:55.958Z,7.95
2023-03-21T11:00:25.622Z,8.55
2023-03-21T11:02:53.420Z,7.72
2023-03-21T11:05:23.137Z,6.93
2023-03-21T11:08:00.824Z,7.35
2023-03-21T11:10:29.490Z,8.23
2023-03-21T11:12:56.549Z,8.30
2023-03-21T11:15:33.768Z,7.35
2023-03-21T11:18:12.987Z,7.50
2023-03-21T11:20:43.471Z,6.88
2023-03-21T11:23:11.057Z,6.82
2023-03-21T11:25:39.258Z,7.32
2023-03-21T11:28:07.449Z,6.47
2023-03-21T11:30:33.882Z,6.43
2023-03-21T11:33:04.277Z,6.78
2023-03-21T11:35:36.616Z,6.95
2023-03-21T11:38:03.879Z,6.80
2023-03-21T11:40:34.362Z,6.75
2023-03-21T11:43:02.557Z,6.80
2023-03-21T11:45:30.807Z,6.90
2023-03-21T11:48:04.128Z,6.65
2023-03-21T11:50:34.543Z,6.78
2023-03-21T11:53:20.657Z,6.05
2023-03-21T11:56:02.226Z,6.68
2023-03-21T11:58:36.290Z,6.70
2023-03-21T12:01:21.935Z,6.50
2023-03-21T12:03:56.195Z,6.25
2023-03-21T12:06:26.560Z,5.82
2023-03-21T12:08:53.144Z,6.78
2023-03-21T12:11:23.133Z,5.93
2023-03-21T12:14:04.115Z,6.03
2023-03-21T12:16:31.457Z,6.72
2023-03-21T12:19:01.993Z,5.88
2023-03-21T12:21:43.978Z,6.05
2023-03-21T12:24:22.691Z,6.32
2023-03-21T12:27:01.245Z,6.10
2023-03-21T12:29:33.534Z,5.95
2023-03-21T12:32:08.756Z,6.22
2023-03-21T12:34:43.811Z,6.43
2023-03-21T12:37:32.864Z,6.63
2023-03-21T12:40:17.730Z,7.15
2023-03-21T12:43:04.374Z,6.75
2023-03-21T12:45:46.694Z,6.13
2023-03-21T12:48:32.850Z,6.47
2023-03-21T12:51:01.238Z,6.35
2023-03-21T12:53:31.771Z,6.05
2023-03-21T12:56:00.746Z,6.25
2023-03-21T12:58:28.493Z,7.13
2023-03-21T13:00:57.126Z,7.00
2023-03-21T13:03:39.934Z,7.03
2023-03-21T13:06:09.130Z,7.03
2023-03-21T13:08:42.259Z,7.28
2023-03-21T13:11:11.877Z,6.97
2023-03-21T13:13:43.690Z,6.43
2023-03-21T13:16:20.239Z,6.30
2023-03-21T13:18:55.865Z,7.13
2023-03-21T13:21:34.848Z,7.50
2023-03-21T13:24:03.315Z,6.18
2023-03-21T13:26:38.457Z,6.97
2023-03-21T13:29:23.552Z,7.18
2023-03-21T13:31:53.057Z,6.97
2023-03-21T13:34:24.070Z,6.97
2023-03-21T13:36:51.409Z,6.97
2023-03-21T13:39:21.102Z,7.28
2023-03-21T13:41:49.391Z,7.65
2023-03-21T13:44:23.966Z,8.77
2023-03-21T13:47:13.635Z,8.13
2023-03-21T13:49:40.010Z,8.43
2023-03-21T13:52:09.580Z,9.52
2023-03-21T13:54:39.262Z,8.48
2023-03-21T13:57:06.197Z,9.15
2023-03-21T13:59:40.782Z,9.63
2023-03-21T14:02:13.547Z,10.20
2023-03-21T14:05:00.359Z,10.07
2023-03-21T14:07:33.512Z,10.35
2023-03-21T14:10:02.158Z,10.00
2023-03-21T14:12:40.376Z,11.75
2023-03-21T14:15:20.483Z,11.50
2023-03-21T14:17:54.288Z,11.05
2023-03-21T14:20:23.914Z,11.52
2023-03-21T14:22:50.686Z,11.43
2023-03-21T14:25:19.100Z,12.23
2023-03-21T14:27:50.972Z,13.05
2023-03-21T14:30:23.038Z,13.15
2023-03-21T14:32:49.499Z,12.55
2023-03-21T14:35:16.039Z,12.93
2023-03-21T14:37:45.343Z,13.00
2023-03-21T14:40:24.824Z,13.15
2023-03-21T14:42:51.995Z,12.45
2023-03-21T14:45:21.832Z,11.82
2023-03-21T14:48:10.849Z,10.98
2023-03-21T14:50:51.546Z,11.57
2023-03-21T14:53:25.344Z,9.80
2023-03-21T14:55:58.278Z,9.95
2023-03-21T14:58:25.284Z,10.27
2023-03-21T15:00:52.571Z,9.70
2023-03-21T15:03:20.414Z,9.10
2023-03-21T15:05:48.361Z,10.07
2023-03-21T15:08:16.211Z,9.25
2023-03-21T15:10:42.981Z,9.43
2023-03-21T15:13:18.284Z,9.32
2023-03-21T15:15:45.680Z,9.77
2023-03-21T15:18:14.575Z,8.73
2023-03-21T15:20:41.363Z,8.77
2023-03-21T15:23:16.478Z,10.00
2023-03-21T15:25:43.593Z,8.98
2023-03-21T15:28:13.155Z,9.60
2023-03-21T15:30:47.248Z,9.40
2023-03-21T15:35:46.245Z,9.85
2023-03-21T15:38:22.468Z,9.10
2023-03-21T15:40:49.008Z,9.25
2023-03-21T15:43:16.383Z,10.00
2023-03-21T15:45:47.267Z,9.38
2023-03-21T15:48:14.579Z,9.60
2023-03-21T15:50:49.934Z,8.57
2023-03-21T15:53:19.839Z,9.55
2023-03-21T15:56:02.215Z,9.63
2023-03-21T15:58:36.756Z,10.50
2023-03-21T16:01:08.061Z,10.20
2023-03-21T16:03:40.573Z,9.30
2023-03-21T16:06:14.437Z,10.00
2023-03-21T16:09:02.717Z,10.23
2023-03-21T16:11:37.056Z,9.93
2023-03-21T16:14:04.056Z,10.95
2023-03-21T16:16:31.176Z,10.48
2023-03-21T16:18:58.732Z,10.65
2023-03-21T16:21:26.809Z,11.05
2023-03-21T16:23:53.472Z,11.65
2023-03-21T16:26:24.066Z,12.00
2023-03-21T16:28:51.120Z,11.70
2023-03-21T16:31:28.584Z,11.63
2023-03-21T16:33:55.317Z,12.20
2023-03-21T16:36:25.566Z,11.35
2023-03-21T16:38:53.376Z,13.23
2023-03-21T16:41:20.885Z,12.90
2023-03-21T16:43:47.599Z,13.13
2023-03-21T16:46:18.653Z,12.70
2023-03-21T16:48:46.720Z,12.65
2023-03-21T16:51:17.605Z,13.60
2023-03-21T16:53:45.909Z,12.55
2023-03-21T16:56:38.770Z,14.77
2023-03-21T16:59:06.172Z,13.38
2023-03-21T17:01:33.190Z,17.13
2023-03-21T17:04:00.102Z,15.43
2023-03-21T17:06:28.062Z,16.58
2023-03-21T17:08:55.712Z,14.50
2023-03-21T17:11:23.617Z,14.38
2023-03-21T17:13:51.407Z,14.82
2023-03-21T17:16:20.833Z,15.73
2023-03-21T17:18:47.388Z,16.38
2023-03-21T17:21:15.123Z,15.45
2023-03-21T17:23:43.454Z,15.43
2023-03-21T17:26:12.649Z,15.02
2023-03-21T17:28:39.683Z,15.90
2023-03-21T17:31:14.813Z,16.92
2023-03-21T17:33:42.389Z,15.57
2023-03-21T17:36:13.398Z,16.98
2023-03-21T17:38:39.798Z,17.27
2023-03-21T17:41:06.521Z,16.23
2023-03-21T17:43:32.983Z,16.45
2023-03-21T17:45:59.606Z,16.02
2023-03-21T17:48:26.164Z,16.42
2023-03-21T17:50:52.794Z,16.55
2023-03-21T17:53:19.332Z,15.50
2023-03-21T17:55:45.995Z,16.65
2023-03-21T17:58:13.087Z,17.70
2023-03-21T18:00:39.971Z,17.42
2023-03-21T18:03:07.045Z,19.05
2023-03-21T18:05:33.809Z,20.42
2023-03-21T18:08:15.698Z,20.08
2023-03-21T18:10:43.071Z,20.63
2023-03-21T18:13:09.858Z,21.83
2023-03-21T18:15:38.343Z,21.05
2023-03-21T18:18:05.187Z,19.95
2023-03-21T18:23:22.630Z,19.98
2023-03-21T18:25:49.295Z,20.40
2023-03-21T18:28:19.200Z,20.80
2023-03-21T18:33:36.556Z,20.90
2023-03-21T18:36:07.574Z,20.73
2023-03-21T18:38:34.361Z,21.27
2023-03-21T18:41:00.863Z,22.73
2023-03-21T18:46:15.746Z,21.73
2023-03-21T18:48:42.876Z,24.55
2023-03-21T18:51:29.276Z,22.40
2023-03-21T18:53:58.520Z,20.75
2023-03-21T18:59:13.066Z,22.08
2023-03-21T19:01:39.843Z,20.52
2023-03-21T19:04:20.761Z,20.52
2023-03-21T19:06:50.509Z,19.35
2023-03-21T19:09:18.962Z,20.80
2023-03-21T19:11:45.745Z,21.80
2023-03-21T19:14:15.500Z,22.15
2023-03-21T19:17:32.646Z,21.88
2023-03-21T19:19:29.958Z,24.33
2023-03-21T19:21:56.703Z,24.98
2023-03-21T19:24:28.254Z,23.65
2023-03-21T19:26:55.663Z,26.50
2023-03-21T19:29:22.284Z,27.60
2023-03-21T19:31:51.341Z,25.67
2023-03-21T19:34:18.281Z,27.80
2023-03-21T19:36:46.110Z,26.80
2023-03-21T19:39:21.897Z,25.77
2023-03-21T19:41:48.438Z,24.85
2023-03-21T19:44:14.781Z,24.05
2023-03-21T19:46:41.588Z,23.77
2023-03-21T19:49:08.232Z,23.27
2023-03-21T19:51:34.885Z,25.65
2023-03-21T19:54:03.384Z,25.95
2023-03-21T19:56:31.613Z,26.75
2023-03-21T19:58:58.887Z,24.73
2023-03-21T20:01:25.632Z,24.15
2023-03-21T20:03:52.416Z,25.58
2023-03-21T20:06:19.997Z,26.45
2023-03-21T20:11:33.556Z,30.42
2023-03-21T20:14:02.104Z,29.67
2023-03-21T20:16:34.689Z,29.35
2023-03-21T20:19:01.996Z,30.45
2023-03-21T20:21:34.836Z,29.52
2023-03-21T20:24:03.847Z,31.20
2023-03-21T20:26:31.086Z,29.38
2023-03-21T20:29:25.126Z,27.60
2023-03-21T20:31:45.968Z,28.92
2023-03-21T20:34:13.371Z,28.08
2023-03-21T20:36:41.285Z,27.45
2023-03-21T20:39:09.415Z,26.90
2023-03-21T20:41:36.997Z,27.65
2023-03-21T20:46:50.239Z,26.98
2023-03-21T20:49:16.961Z,28.92
2023-03-21T20:54:30.539Z,27.85
2023-03-21T20:56:58.413Z,29.75
2023-03-21T20:59:27.936Z,30.67
2023-03-21T21:01:58.256Z,30.83
2023-03-21T21:04:44.864Z,33.15
2023-03-21T21:07:17.339Z,34.88
2023-03-21T21:09:45.475Z,33.78
2023-03-21T21:12:12.862Z,32.45
2023-03-21T21:14:42.365Z,32.20
2023-03-21T21:19:56.242Z,33.95
2023-03-21T21:22:22.590Z,33.15
2023-03-21T21:24:49.481Z,32.88
2023-03-21T21:27:16.260Z,33.40
2023-03-21T21:29:43.674Z,32.63
2023-03-21T21:32:10.522Z,34.63
2023-03-21T21:34:37.430Z,32.90
2023-03-21T21:37:03.825Z,34.67
2023-03-21T21:39:36.595Z,32.72
2023-03-21T21:42:03.878Z,35.65
2023-03-21T21:44:30.719Z,34.95
2023-03-21T21:46:59.831Z,35.15
2023-03-21T21:49:27.176Z,33.38
2023-03-21T21:51:56.417Z,33.63
2023-03-21T21:54:24.059Z,34.33
2023-03-21T21:56:54.358Z,33.97
2023-03-21T21:59:22.168Z,34.00
2023-03-21T22:01:51.312Z,33.88
2023-03-21T22:04:19.627Z,35.45
2023-03-21T22:06:47.885Z,34.60
2023-03-21T22:09:16.014Z,34.53
2023-03-21T22:11:42.766Z,33.38
2023-03-21T22:14:09.420Z,33.63
2023-03-21T22:16:36.182Z,33.33
2023-03-21T22:19:02.559Z,33.88
2023-03-21T22:21:29.090Z,39.42
2023-03-21T22:23:56.044Z,37.13
2023-03-21T22:26:22.982Z,39.83
2023-03-21T22:28:49.568Z,37.63
2023-03-21T22:31:16.689Z,36.15
2023-03-21T22:33:43.496Z,35.47
2023-03-21T22:36:10.479Z,34.00
2023-03-21T22:38:38.114Z,34.58
2023-03-21T22:41:05.261Z,39.72
2023-03-21T22:43:35.435Z,44.92
2023-03-21T22:46:05.676Z,41.88
2023-03-21T22:48:32.454Z,40.50
2023-03-21T22:51:00.115Z,38.80
2023-03-21T22:53:26.609Z,36.78
2023-03-21T22:55:53.098Z,35.65
2023-03-21T22:58:19.845Z,33.35
2023-03-21T23:00:49.170Z,32.58
2023-03-21T23:03:17.106Z,33.35
2023-03-21T23:05:44.182Z,32.55
2023-03-21T23:08:11.117Z,32.70
2023-03-21T23:10:39.722Z,33.03
2023-03-21T23:13:06.669Z,35.00
2023-03-21T23:15:33.238Z,35.85
2023-03-21T23:17:59.873Z,35.30
2023-03-21T23:20:26.546Z,36.53
2023-03-21T23:22:52.903Z,37.33
2023-03-21T23:25:20.590Z,35.70
2023-03-21T23:27:47.408Z,35.95
2023-03-21T23:30:23.378Z,34.83
2023-03-21T23:32:50.133Z,33.33
2023-03-21T23:35:16.921Z,34.90
2023-03-21T23:37:52.793Z,34.90
2023-03-21T23:40:20.085Z,37.20
2023-03-21T23:42:46.624Z,36.53
2023-03-21T23:45:13.205Z,35.25
2023-03-21T23:47:39.886Z,35.45
2023-03-21T23:50:09.874Z,36.10
2023-03-21T23:52:37.069Z,34.15
2023-03-21T23:55:04.523Z,39.55
2023-03-21T23:57:31.272Z,38.60
2023-03-21T23:59:57.990Z,33.58
